Terminal Aerodrome Forecast
Issued by NWS Albany, NY

Home | Current Version | Previous Version | Text Only | Print | Product List | Glossary On
Versions: 1 2 3 4 5 6 7 8 9 10 11 12 13 14 15 16 17 18
164
FTUS41 KALY 290535
TAFGFL
TAF
KGFL 290535Z 2906/3006 VRB03KT P6SM OVC150
     FM291100 02004KT P6SM VCSH BKN060 OVC120
     FM291600 04008KT P6SM SCT050 BKN120
     FM292100 02007KT P6SM SCT120 SCT200
     FM300300 36004KT P6SM BKN200=

USA.gov is the U.S. government's official web portal to all federal, state and local government web resources and services.